Time;durP1;ratioP1;P1;durP2;ratioP2;P2;SDS_P1;SDS_P2;PMS_P1;PMS_P2;Temp;Humidity;BMP_temperature;BMP_pressure;BME280_temperature;BME280_humidity;BME280_pressure;Samples;Min_cycle;Max_cycle;Signal;HPM_P1;HPM_P2
2024/03/20 00:04:57;;;;;;;147.60;100.80;;;;;;;-3.54;89.33;100202.13;437403;1260;139696;-58
2024/03/20 00:15:04;;;;;;;142.30;99.90;;;;;;;-3.59;90.71;100192.71;437272;1257;139484;-57
2024/03/20 00:25:10;;;;;;;156.30;107.10;;;;;;;-3.62;91.32;100194.05;436273;1260;139769;-58
2024/03/20 00:35:16;;;;;;;144.10;103.30;;;;;;;-3.69;91.63;100177.10;436967;1262;140009;-53
2024/03/20 00:45:21;;;;;;;156.20;106.40;;;;;;;-3.79;91.58;100174.49;436247;1262;140031;-53
2024/03/20 00:55:27;;;;;;;153.90;101.50;;;;;;;-3.89;92.02;100169.31;436364;1259;139451;-63
2024/03/20 01:05:32;;;;;;;168.80;109.70;;;;;;;-3.98;92.32;100175.27;436423;1260;139879;-63
2024/03/20 01:15:38;;;;;;;150.90;102.90;;;;;;;-4.04;92.74;100180.88;436671;1258;139391;-63
2024/03/20 01:25:43;;;;;;;147.30;103.40;;;;;;;-4.12;93.41;100170.73;436434;1260;140016;-62
2024/03/20 01:35:47;;;;;;;;;;;;;;;-4.17;93.95;100164.39;436307;1260;139629;-56
2024/03/20 01:45:53;;;;;;;143.40;97.80;;;;;;;-4.25;93.95;100162.63;436213;1255;125250;-56
2024/03/20 01:55:59;;;;;;;149.50;104.60;;;;;;;-4.32;94.17;100156.77;436216;1256;139902;-56
2024/03/20 02:06:03;;;;;;;;;;;;;;;-4.37;94.58;100163.58;436229;1260;139344;-57
2024/03/20 02:16:09;;;;;;;155.70;110.30;;;;;;;-4.42;94.91;100166.46;436699;1254;126621;-56
2024/03/20 02:26:15;;;;;;;149.00;99.60;;;;;;;-4.49;95.08;100163.16;436298;1259;139411;-57
2024/03/20 02:36:20;;;;;;;165.60;109.00;;;;;;;-4.56;94.97;100161.75;437663;1254;139769;-58
2024/03/20 02:46:26;;;;;;;154.20;105.70;;;;;;;-4.65;94.98;100162.02;437796;1257;140185;-56
2024/03/20 02:56:31;;;;;;;149.70;102.20;;;;;;;-4.71;95.39;100158.23;436414;1258;140093;-57
2024/03/20 03:06:37;;;;;;;153.60;104.20;;;;;;;-4.73;96.06;100155.30;436290;1259;139791;-52
2024/03/20 03:16:41;;;;;;;;;;;;;;;-4.76;97.08;100142.30;436715;1257;139362;-53
2024/03/20 03:26:47;;;;;;;117.30;83.60;;;;;;;-4.65;99.75;100146.98;437328;1255;125489;-63
2024/03/20 03:36:52;;;;;;;144.10;100.90;;;;;;;-4.62;99.97;100146.16;436577;1258;139228;-63
2024/03/20 03:46:58;;;;;;;143.40;98.40;;;;;;;-4.71;99.62;100142.52;436890;1257;138452;-52
2024/03/20 03:57:04;;;;;;;146.30;99.90;;;;;;;-4.82;99.12;100139.17;436410;1258;139373;-53
2024/03/20 04:07:10;;;;;;;132.30;95.80;;;;;;;-4.92;98.96;100143.04;436837;1254;139400;-55
2024/03/20 04:17:14;;;;;;;;;;;;;;;-4.98;99.18;100139.89;436453;1260;139910;-57
2024/03/20 04:27:19;;;;;;;128.40;91.40;;;;;;;-5.04;99.36;100138.65;436774;1257;126078;-51
2024/03/20 04:37:24;;;;;;;119.60;85.80;;;;;;;-5.05;99.48;100133.35;437837;1254;139782;-52
2024/03/20 04:47:30;;;;;;;121.10;87.60;;;;;;;-4.92;100.00;100128.67;437152;1260;139258;-56
2024/03/20 04:57:36;;;;;;;112.80;81.90;;;;;;;-4.76;100.00;100133.07;436352;1257;140084;-57
2024/03/20 05:07:41;;;;;;;122.20;82.70;;;;;;;-4.69;100.00;100138.42;437966;1254;139934;-52
2024/03/20 05:17:47;;;;;;;108.40;77.40;;;;;;;-4.52;100.00;100138.70;436633;1259;139747;-53
2024/03/20 05:27:52;;;;;;;105.10;75.50;;;;;;;-4.16;100.00;100155.85;436690;1256;139332;-54
2024/03/20 05:37:58;;;;;;;100.10;71.80;;;;;;;-3.65;100.00;100165.48;436349;1256;139870;-52
2024/03/20 05:48:05;;;;;;;87.20;62.90;;;;;;;-2.58;100.00;100163.54;436622;1259;139352;-52
2024/03/20 05:58:10;;;;;;;87.30;60.50;;;;;;;0.13;100.00;100155.09;436879;1257;139388;-57
2024/03/20 06:08:16;;;;;;;80.30;65.20;;;;;;;4.11;99.77;100147.36;436436;1259;138986;-55
2024/03/20 06:18:22;;;;;;;66.10;53.60;;;;;;;8.38;94.62;100149.66;437037;1258;139787;-56
2024/03/20 06:28:28;;;;;;;61.00;47.80;;;;;;;12.87;86.40;100140.31;437288;1258;138232;-56
2024/03/20 06:38:34;;;;;;;50.90;44.60;;;;;;;16.68;74.95;100142.52;437065;1257;138937;-56
2024/03/20 06:48:40;;;;;;;43.90;38.90;;;;;;;18.68;67.27;100138.46;436629;1257;138799;-57
2024/03/20 06:58:45;;;;;;;36.70;32.80;;;;;;;20.68;61.77;100132.92;437222;1259;139005;-58
2024/03/20 07:08:51;;;;;;;36.30;32.80;;;;;;;23.45;57.00;100124.00;437225;1256;139302;-58
2024/03/20 07:18:56;;;;;;;32.30;29.40;;;;;;;25.65;50.82;100108.39;436703;1256;139120;-57
2024/03/20 07:29:02;;;;;;;29.20;26.70;;;;;;;26.63;46.18;100101.48;436754;1257;138411;-56
2024/03/20 07:39:08;;;;;;;25.60;23.50;;;;;;;27.54;43.54;100109.08;436763;1256;138998;-68
2024/03/20 07:49:13;;;;;;;23.60;21.90;;;;;;;30.05;41.04;100107.23;436823;1259;138990;-69
2024/03/20 07:59:19;;;;;;;21.30;19.70;;;;;;;32.12;37.25;100115.49;437036;1257;138553;-59
2024/03/20 08:09:25;;;;;;;20.70;18.30;;;;;;;34.10;34.64;100111.91;433085;1257;5218168;-58
2024/03/20 08:19:31;;;;;;;18.50;16.80;;;;;;;36.13;32.44;100106.42;436922;1256;139488;-58
2024/03/20 08:29:38;;;;;;;18.70;17.10;;;;;;;37.25;29.65;100104.58;436822;1259;138815;-59
2024/03/20 08:39:44;;;;;;;16.90;15.20;;;;;;;37.87;28.35;100104.79;437091;1256;138997;-70
2024/03/20 08:49:49;;;;;;;15.50;14.40;;;;;;;37.35;27.20;100102.40;437242;1259;138740;-70
2024/03/20 08:59:55;;;;;;;16.20;14.80;;;;;;;35.69;26.21;100095.70;438529;1255;138651;-68
2024/03/20 09:10:00;;;;;;;16.80;15.20;;;;;;;30.79;25.76;100094.32;437487;1259;138755;-62
2024/03/20 09:20:15;;;;;;;16.80;15.20;;;;;;;24.97;27.38;100086.33;437206;1257;139235;-61
2024/03/20 09:30:24;;;;;;;15.90;14.30;;;;;;;21.01;29.49;100086.30;437090;1257;139095;-61
2024/03/20 09:40:30;;;;;;;17.40;14.10;;;;;;;18.26;31.33;100084.23;436762;1256;138723;-63
2024/03/20 09:50:40;;;;;;;19.00;17.00;;;;;;;16.48;33.16;100088.86;436610;1259;138809;-61
2024/03/20 10:00:46;;;;;;;17.50;15.70;;;;;;;15.05;34.69;100098.75;436543;1257;138757;-62
2024/03/20 10:10:54;;;;;;;17.90;16.10;;;;;;;13.98;36.23;100091.26;436678;1257;138470;-61
2024/03/20 10:21:00;;;;;;;18.90;16.30;;;;;;;13.34;37.59;100088.41;436572;1259;138541;-61
2024/03/20 10:31:08;;;;;;;14.30;12.90;;;;;;;12.89;38.59;100088.34;436372;1259;138709;-56
2024/03/20 10:41:21;;;;;;;14.90;13.40;;;;;;;12.48;38.74;100080.84;436587;1256;139089;-55
2024/03/20 10:51:27;;;;;;;17.20;14.70;;;;;;;12.12;39.65;100075.52;436989;1256;138993;-56
2024/03/20 11:01:33;;;;;;;17.10;15.10;;;;;;;11.89;40.53;100077.10;436916;1257;138921;-56
2024/03/20 11:11:39;;;;;;;15.20;13.70;;;;;;;11.81;40.98;100059.69;437319;1256;139834;-66
2024/03/20 11:21:50;;;;;;;14.40;12.80;;;;;;;12.11;40.82;100044.20;437640;1256;138406;-66
2024/03/20 11:31:56;;;;;;;13.40;12.10;;;;;;;12.26;40.74;100044.80;437402;1256;139236;-63
2024/03/20 11:42:05;;;;;;;13.10;10.60;;;;;;;12.37;40.64;100034.11;438760;1259;138289;-66
2024/03/20 11:52:15;;;;;;;16.20;12.90;;;;;;;12.08;40.83;100023.84;437817;1256;139331;-65
2024/03/20 12:02:21;;;;;;;17.20;12.10;;;;;;;11.62;41.39;100021.73;438984;1256;139535;-66
2024/03/20 12:12:27;;;;;;;11.40;10.30;;;;;;;11.42;41.74;100004.54;438094;1256;138776;-66
2024/03/20 12:22:33;;;;;;;12.80;11.50;;;;;;;11.11;41.79;99989.71;437998;1257;137807;-64
2024/03/20 12:32:39;;;;;;;14.90;12.10;;;;;;;10.78;42.20;99971.88;438390;1257;139339;-64
2024/03/20 12:42:44;;;;;;;12.90;11.20;;;;;;;10.41;42.50;99970.10;438492;1255;138679;-57
2024/03/20 12:52:50;;;;;;;15.90;12.40;;;;;;;10.26;43.12;99967.09;440271;1254;139001;-58
2024/03/20 13:02:56;;;;;;;15.10;13.40;;;;;;;10.19;43.24;99960.84;438634;1259;138570;-57
2024/03/20 13:13:04;;;;;;;13.10;11.10;;;;;;;10.41;43.97;99954.23;438540;1259;138651;-57
2024/03/20 13:23:12;;;;;;;17.50;13.60;;;;;;;10.51;44.30;99957.69;438871;1257;139063;-57
2024/03/20 13:33:18;;;;;;;14.10;12.60;;;;;;;10.57;44.49;99955.96;438972;1254;139079;-57
2024/03/20 13:44:00;;;;;;;13.40;11.90;;;;;;;10.60;44.29;99946.51;439384;1258;138919;-60
2024/03/20 13:54:07;;;;;;;16.00;12.30;;;;;;;10.68;44.16;99935.36;439601;1258;137375;-62
2024/03/20 14:04:13;;;;;;;12.40;11.10;;;;;;;10.59;43.62;99931.68;438022;1258;138441;-65
2024/03/20 14:14:18;;;;;;;15.80;12.00;;;;;;;10.52;43.93;99926.27;437326;1256;139230;-64
2024/03/20 14:24:25;;;;;;;14.30;12.10;;;;;;;10.57;43.85;99919.02;437790;1257;138517;-64
2024/03/20 14:34:30;;;;;;;16.70;13.20;;;;;;;10.74;44.48;99915.39;437501;1258;138971;-59
2024/03/20 14:44:36;;;;;;;15.40;11.30;;;;;;;10.84;44.21;99920.90;437335;1254;139040;-57
2024/03/20 14:54:41;;;;;;;16.30;12.90;;;;;;;10.75;44.14;99927.38;437267;1254;138458;-61
2024/03/20 15:04:48;;;;;;;15.70;13.40;;;;;;;10.73;44.19;99925.40;437280;1259;138367;-61
2024/03/20 15:14:53;;;;;;;16.10;14.10;;;;;;;10.76;44.48;99916.48;437304;1259;139281;-64
2024/03/20 15:25:05;;;;;;;15.50;12.50;;;;;;;10.70;44.62;99916.88;437201;1254;140745;-65
2024/03/20 15:35:16;;;;;;;14.50;11.40;;;;;;;10.65;44.53;99916.96;437587;1257;138522;-64
2024/03/20 15:45:23;;;;;;;15.20;13.40;;;;;;;10.36;44.16;99916.15;437347;1255;139342;-62
2024/03/20 15:55:29;;;;;;;17.70;11.00;;;;;;;10.05;44.39;99922.13;437980;1259;139008;-60
2024/03/20 16:05:35;;;;;;;13.40;11.50;;;;;;;9.68;44.54;99924.67;438890;1254;138842;-67
2024/03/20 16:15:44;;;;;;;17.30;11.50;;;;;;;9.35;45.10;99924.32;437650;1254;139382;-60
2024/03/20 16:25:50;;;;;;;18.30;13.30;;;;;;;9.13;45.85;99930.77;438720;1251;138247;-63
2024/03/20 16:35:56;;;;;;;17.90;13.80;;;;;;;8.85;46.48;99931.45;438593;1253;138187;-63
2024/03/20 16:46:02;;;;;;;18.50;13.60;;;;;;;8.54;47.35;99935.10;438400;1251;138773;-62
2024/03/20 16:56:10;;;;;;;21.00;15.70;;;;;;;8.18;47.87;99938.76;438847;1251;139023;-63
2024/03/20 17:06:18;;;;;;;20.80;15.80;;;;;;;7.84;48.70;99946.98;438655;1253;137128;-54
2024/03/20 17:16:24;;;;;;;31.20;16.60;;;;;;;7.57;50.15;99952.94;439311;1253;138670;-60
2024/03/20 17:26:29;;;;;;;31.70;18.10;;;;;;;7.33;51.10;99955.73;437893;1251;138539;-62
2024/03/20 17:36:35;;;;;;;24.40;14.90;;;;;;;7.08;52.19;99956.27;437929;1254;138870;-63
2024/03/20 17:46:40;;;;;;;35.40;21.50;;;;;;;6.89;52.69;99962.51;438333;1253;138522;-64
2024/03/20 17:56:46;;;;;;;35.00;19.60;;;;;;;6.69;52.55;99963.52;439116;1250;139011;-64
2024/03/20 18:06:52;;;;;;;40.10;25.70;;;;;;;6.54;53.42;99959.41;438905;1251;138377;-62
2024/03/20 18:16:58;;;;;;;27.60;21.70;;;;;;;6.41;54.54;99959.09;438616;1253;138413;-63
2024/03/20 18:27:05;;;;;;;31.00;22.30;;;;;;;6.29;55.86;99965.85;438005;1253;137940;-62
2024/03/20 18:37:10;;;;;;;32.00;24.80;;;;;;;6.12;56.95;99970.66;438312;1256;137968;-63
2024/03/20 18:47:20;;;;;;;33.80;27.40;;;;;;;5.98;58.22;99970.30;438249;1256;138072;-61
2024/03/20 18:57:27;;;;;;;37.20;25.00;;;;;;;5.86;59.48;99978.41;438031;1254;138558;-62
2024/03/20 19:07:32;;;;;;;43.70;35.60;;;;;;;5.68;60.44;99986.56;438111;1251;138671;-61
2024/03/20 19:17:38;;;;;;;63.30;42.50;;;;;;;5.50;61.52;99989.98;437907;1253;138532;-62
2024/03/20 19:27:44;;;;;;;42.60;31.90;;;;;;;5.33;62.36;99987.13;438221;1254;139138;-62
2024/03/20 19:37:49;;;;;;;44.60;31.90;;;;;;;5.22;63.37;99989.10;438059;1253;139514;-62
2024/03/20 19:47:55;;;;;;;48.10;33.10;;;;;;;5.22;64.21;99992.77;438020;1254;138937;-61
2024/03/20 19:58:01;;;;;;;49.80;34.40;;;;;;;5.19;64.76;99994.23;437960;1254;138988;-61
2024/03/20 20:08:08;;;;;;;55.00;36.20;;;;;;;5.16;65.04;99992.77;434866;1253;5081405;-61
2024/03/20 20:18:13;;;;;;;43.70;33.10;;;;;;;5.13;65.62;99989.74;438466;1254;139423;-62
2024/03/20 20:28:19;;;;;;;46.10;31.50;;;;;;;5.08;66.20;99991.48;438133;1251;139661;-63
2024/03/20 20:38:25;;;;;;;41.80;27.80;;;;;;;5.05;66.94;99983.61;438075;1251;139925;-66
2024/03/20 20:48:31;;;;;;;36.50;26.40;;;;;;;4.97;67.60;99982.15;438066;1254;139256;-62
2024/03/20 20:58:37;;;;;;;37.90;26.30;;;;;;;4.83;68.31;99983.98;438054;1254;138688;-61
2024/03/20 21:29:38;;;;;;;45.00;29.80;;;;;;;4.55;69.91;99979.38;437794;1251;138684;-62
2024/03/20 21:39:43;;;;;;;41.10;28.20;;;;;;;4.45;70.35;99973.80;438053;1253;138686;-64
2024/03/20 21:49:50;;;;;;;42.30;28.90;;;;;;;4.35;70.94;99967.35;437470;1253;139475;-61
2024/03/20 21:59:55;;;;;;;41.50;28.90;;;;;;;4.33;71.52;99958.73;437857;1254;138734;-61
2024/03/20 22:10:01;;;;;;;45.70;33.20;;;;;;;4.37;72.05;99959.84;437215;1254;139233;-60
2024/03/20 22:20:26;;;;;;;48.60;29.50;;;;;;;4.41;72.26;99968.38;437569;1254;138806;-61
2024/03/20 22:30:32;;;;;;;44.40;31.30;;;;;;;4.44;72.53;99970.19;438014;1251;138932;-61
2024/03/20 22:40:38;;;;;;;40.90;29.70;;;;;;;4.43;72.50;99970.38;437610;1254;139159;-61
2024/03/20 22:50:44;;;;;;;42.10;31.40;;;;;;;4.34;72.36;99967.21;437504;1253;139140;-52
2024/03/20 23:00:52;;;;;;;45.10;31.20;;;;;;;4.17;72.80;99966.72;437940;1251;139037;-48
2024/03/20 23:10:58;;;;;;;44.60;33.10;;;;;;;3.99;73.14;99962.75;437898;1251;139088;-63
2024/03/20 23:21:05;;;;;;;42.00;31.80;;;;;;;3.86;73.60;99966.77;437479;1254;139764;-61
2024/03/20 23:31:10;;;;;;;45.40;32.70;;;;;;;3.74;74.02;99962.46;438003;1251;139278;-61
2024/03/20 23:41:16;;;;;;;40.20;29.70;;;;;;;3.62;74.37;99958.14;440795;1250;139278;-61
2024/03/20 23:51:22;;;;;;;46.30;31.00;;;;;;;3.45;74.76;99951.88;438808;1250;139226;-60
